sensor_id;sensor_type;location;lat;lon;timestamp;temperature;humidity
53114;DHT22;39009;53.166;6.232;2022-09-17T00:01:24;10.50;99.90
53114;DHT22;39009;53.166;6.232;2022-09-17T00:03:54;10.50;99.90
53114;DHT22;39009;53.166;6.232;2022-09-17T00:06:21;10.50;99.90
53114;DHT22;39009;53.166;6.232;2022-09-17T00:08:47;10.70;99.90
53114;DHT22;39009;53.166;6.232;2022-09-17T00:11:14;10.40;99.90
53114;DHT22;39009;53.166;6.232;2022-09-17T00:13:40;10.30;99.90
53114;DHT22;39009;53.166;6.232;2022-09-17T00:16:06;10.20;99.90
53114;DHT22;39009;53.166;6.232;2022-09-17T00:18:31;10.20;99.90
53114;DHT22;39009;53.166;6.232;2022-09-17T00:20:57;10.20;99.90
53114;DHT22;39009;53.166;6.232;2022-09-17T00:23:23;10.00;99.90
53114;DHT22;39009;53.166;6.232;2022-09-17T00:25:49;10.00;99.90
53114;DHT22;39009;53.166;6.232;2022-09-17T00:28:14;9.90;99.90
53114;DHT22;39009;53.166;6.232;2022-09-17T00:30:41;10.00;99.90
53114;DHT22;39009;53.166;6.232;2022-09-17T00:33:06;9.80;99.90
53114;DHT22;39009;53.166;6.232;2022-09-17T00:35:32;9.80;99.90
53114;DHT22;39009;53.166;6.232;2022-09-17T00:37:58;9.70;99.90
53114;DHT22;39009;53.166;6.232;2022-09-17T00:40:24;9.70;99.90
53114;DHT22;39009;53.166;6.232;2022-09-17T00:42:49;9.60;99.90
53114;DHT22;39009;53.166;6.232;2022-09-17T00:45:17;9.70;99.90
53114;DHT22;39009;53.166;6.232;2022-09-17T00:47:48;9.60;99.90
53114;DHT22;39009;53.166;6.232;2022-09-17T00:50:20;9.60;99.90
53114;DHT22;39009;53.166;6.232;2022-09-17T00:52:52;9.60;99.90
53114;DHT22;39009;53.166;6.232;2022-09-17T00:55:20;9.60;99.90
53114;DHT22;39009;53.166;6.232;2022-09-17T00:57:47;9.70;99.90
53114;DHT22;39009;53.166;6.232;2022-09-17T01:00:14;9.90;99.90
53114;DHT22;39009;53.166;6.232;2022-09-17T01:02:40;9.80;99.90
53114;DHT22;39009;53.166;6.232;2022-09-17T01:05:06;9.90;99.90
53114;DHT22;39009;53.166;6.232;2022-09-17T01:10:30;9.90;99.90
53114;DHT22;39009;53.166;6.232;2022-09-17T01:13:17;10.00;99.90
53114;DHT22;39009;53.166;6.232;2022-09-17T01:16:01;10.00;99.90
53114;DHT22;39009;53.166;6.232;2022-09-17T01:18:40;10.10;99.90
53114;DHT22;39009;53.166;6.232;2022-09-17T01:21:13;10.10;99.90
53114;DHT22;39009;53.166;6.232;2022-09-17T01:31:57;9.90;99.90
53114;DHT22;39009;53.166;6.232;2022-09-17T01:34:29;9.90;99.90
53114;DHT22;39009;53.166;6.232;2022-09-17T01:37:01;9.80;99.90
53114;DHT22;39009;53.166;6.232;2022-09-17T01:41:57;9.70;99.90
53114;DHT22;39009;53.166;6.232;2022-09-17T01:44:28;9.70;99.90
53114;DHT22;39009;53.166;6.232;2022-09-17T01:46:56;9.60;99.90
53114;DHT22;39009;53.166;6.232;2022-09-17T01:49:25;9.60;99.90
53114;DHT22;39009;53.166;6.232;2022-09-17T01:51:51;9.70;99.90
53114;DHT22;39009;53.166;6.232;2022-09-17T01:54:19;9.80;99.90
53114;DHT22;39009;53.166;6.232;2022-09-17T01:56:54;9.80;99.90
53114;DHT22;39009;53.166;6.232;2022-09-17T01:59:24;9.90;99.90
53114;DHT22;39009;53.166;6.232;2022-09-17T02:01:56;9.90;99.90
53114;DHT22;39009;53.166;6.232;2022-09-17T02:04:25;9.90;99.90
53114;DHT22;39009;53.166;6.232;2022-09-17T02:06:53;10.00;99.90
53114;DHT22;39009;53.166;6.232;2022-09-17T02:09:37;10.00;99.90
53114;DHT22;39009;53.166;6.232;2022-09-17T02:12:06;10.00;99.90
53114;DHT22;39009;53.166;6.232;2022-09-17T02:14:35;10.00;99.90
53114;DHT22;39009;53.166;6.232;2022-09-17T02:17:07;10.40;99.90
53114;DHT22;39009;53.166;6.232;2022-09-17T02:19:35;10.20;99.90
53114;DHT22;39009;53.166;6.232;2022-09-17T02:22:11;10.40;99.90
53114;DHT22;39009;53.166;6.232;2022-09-17T02:24:43;10.40;99.90
53114;DHT22;39009;53.166;6.232;2022-09-17T02:29:54;10.30;99.90
53114;DHT22;39009;53.166;6.232;2022-09-17T02:32:20;10.30;99.90
53114;DHT22;39009;53.166;6.232;2022-09-17T02:34:46;10.20;99.90
53114;DHT22;39009;53.166;6.232;2022-09-17T02:37:11;10.20;99.90
53114;DHT22;39009;53.166;6.232;2022-09-17T02:39:37;10.10;99.90
53114;DHT22;39009;53.166;6.232;2022-09-17T02:57:21;9.60;99.90
53114;DHT22;39009;53.166;6.232;2022-09-17T03:02:17;9.60;99.90
53114;DHT22;39009;53.166;6.232;2022-09-17T03:04:45;9.50;99.90
53114;DHT22;39009;53.166;6.232;2022-09-17T03:07:11;9.50;99.90
53114;DHT22;39009;53.166;6.232;2022-09-17T03:09:37;9.60;99.90
53114;DHT22;39009;53.166;6.232;2022-09-17T03:12:03;9.50;99.90
53114;DHT22;39009;53.166;6.232;2022-09-17T03:14:29;9.50;99.90
53114;DHT22;39009;53.166;6.232;2022-09-17T03:16:54;9.40;99.90
53114;DHT22;39009;53.166;6.232;2022-09-17T03:19:20;9.40;99.90
53114;DHT22;39009;53.166;6.232;2022-09-17T03:21:46;9.50;99.90
53114;DHT22;39009;53.166;6.232;2022-09-17T03:24:11;9.30;99.90
53114;DHT22;39009;53.166;6.232;2022-09-17T03:26:37;9.20;99.90
53114;DHT22;39009;53.166;6.232;2022-09-17T03:29:03;9.30;99.90
53114;DHT22;39009;53.166;6.232;2022-09-17T03:31:28;9.60;99.90
53114;DHT22;39009;53.166;6.232;2022-09-17T03:33:54;9.70;99.90
53114;DHT22;39009;53.166;6.232;2022-09-17T03:36:19;9.80;99.90
53114;DHT22;39009;53.166;6.232;2022-09-17T03:38:45;9.80;99.90
53114;DHT22;39009;53.166;6.232;2022-09-17T03:41:10;9.80;99.90
53114;DHT22;39009;53.166;6.232;2022-09-17T03:43:36;9.70;99.90
53114;DHT22;39009;53.166;6.232;2022-09-17T03:46:02;9.70;99.90
53114;DHT22;39009;53.166;6.232;2022-09-17T03:48:27;9.70;99.90
53114;DHT22;39009;53.166;6.232;2022-09-17T03:50:54;9.60;99.90
53114;DHT22;39009;53.166;6.232;2022-09-17T03:53:19;9.70;99.90
53114;DHT22;39009;53.166;6.232;2022-09-17T03:55:45;9.50;99.90
53114;DHT22;39009;53.166;6.232;2022-09-17T03:58:11;9.60;99.90
53114;DHT22;39009;53.166;6.232;2022-09-17T04:00:36;9.60;99.90
53114;DHT22;39009;53.166;6.232;2022-09-17T04:03:03;9.60;99.90
53114;DHT22;39009;53.166;6.232;2022-09-17T04:05:28;9.60;99.90
53114;DHT22;39009;53.166;6.232;2022-09-17T04:07:54;9.80;99.90
53114;DHT22;39009;53.166;6.232;2022-09-17T04:10:19;9.60;99.90
53114;DHT22;39009;53.166;6.232;2022-09-17T04:12:45;9.60;99.90
53114;DHT22;39009;53.166;6.232;2022-09-17T04:15:11;9.60;99.90
53114;DHT22;39009;53.166;6.232;2022-09-17T04:17:36;9.60;99.90
53114;DHT22;39009;53.166;6.232;2022-09-17T04:20:02;9.60;99.90
53114;DHT22;39009;53.166;6.232;2022-09-17T04:22:28;9.50;99.90
53114;DHT22;39009;53.166;6.232;2022-09-17T04:24:53;9.50;99.90
53114;DHT22;39009;53.166;6.232;2022-09-17T04:27:19;9.40;99.90
53114;DHT22;39009;53.166;6.232;2022-09-17T04:29:44;9.40;99.90
53114;DHT22;39009;53.166;6.232;2022-09-17T04:32:10;9.60;99.90
53114;DHT22;39009;53.166;6.232;2022-09-17T04:34:35;9.60;99.90
53114;DHT22;39009;53.166;6.232;2022-09-17T04:37:01;9.40;99.90
53114;DHT22;39009;53.166;6.232;2022-09-17T04:39:26;9.40;99.90
53114;DHT22;39009;53.166;6.232;2022-09-17T04:41:52;9.40;99.90
53114;DHT22;39009;53.166;6.232;2022-09-17T04:44:17;9.50;99.90
53114;DHT22;39009;53.166;6.232;2022-09-17T04:46:43;9.50;99.90
53114;DHT22;39009;53.166;6.232;2022-09-17T04:49:09;9.50;99.90
53114;DHT22;39009;53.166;6.232;2022-09-17T04:51:35;9.40;99.90
53114;DHT22;39009;53.166;6.232;2022-09-17T04:54:01;9.40;99.90
53114;DHT22;39009;53.166;6.232;2022-09-17T04:56:26;9.30;99.90
53114;DHT22;39009;53.166;6.232;2022-09-17T04:58:52;9.30;99.90
53114;DHT22;39009;53.166;6.232;2022-09-17T05:01:17;9.20;99.90
53114;DHT22;39009;53.166;6.232;2022-09-17T05:03:43;9.20;99.90
53114;DHT22;39009;53.166;6.232;2022-09-17T05:06:09;9.20;99.90
53114;DHT22;39009;53.166;6.232;2022-09-17T05:08:34;9.20;99.90
53114;DHT22;39009;53.166;6.232;2022-09-17T05:11:00;9.30;99.90
53114;DHT22;39009;53.166;6.232;2022-09-17T05:13:26;9.20;99.90
53114;DHT22;39009;53.166;6.232;2022-09-17T05:15:52;9.20;99.90
53114;DHT22;39009;53.166;6.232;2022-09-17T05:18:18;9.20;99.90
53114;DHT22;39009;53.166;6.232;2022-09-17T05:20:44;9.40;99.90
53114;DHT22;39009;53.166;6.232;2022-09-17T05:23:09;9.10;99.90
53114;DHT22;39009;53.166;6.232;2022-09-17T05:25:35;9.50;99.90
53114;DHT22;39009;53.166;6.232;2022-09-17T05:28:00;9.10;99.90
53114;DHT22;39009;53.166;6.232;2022-09-17T05:30:26;9.20;99.90
53114;DHT22;39009;53.166;6.232;2022-09-17T05:33:04;9.20;99.90
53114;DHT22;39009;53.166;6.232;2022-09-17T05:35:31;9.30;99.90
53114;DHT22;39009;53.166;6.232;2022-09-17T05:38:01;9.40;99.90
53114;DHT22;39009;53.166;6.232;2022-09-17T05:40:27;9.60;99.90
53114;DHT22;39009;53.166;6.232;2022-09-17T05:42:57;9.40;99.90
53114;DHT22;39009;53.166;6.232;2022-09-17T05:45:23;9.50;99.90
53114;DHT22;39009;53.166;6.232;2022-09-17T05:47:52;9.40;99.90
53114;DHT22;39009;53.166;6.232;2022-09-17T05:50:18;9.40;99.90
53114;DHT22;39009;53.166;6.232;2022-09-17T05:52:44;9.30;99.90
53114;DHT22;39009;53.166;6.232;2022-09-17T05:55:09;9.30;99.90
53114;DHT22;39009;53.166;6.232;2022-09-17T05:57:35;9.20;99.90
53114;DHT22;39009;53.166;6.232;2022-09-17T06:00:00;9.20;99.90
53114;DHT22;39009;53.166;6.232;2022-09-17T06:02:26;9.10;99.90
53114;DHT22;39009;53.166;6.232;2022-09-17T06:04:51;9.10;99.90
53114;DHT22;39009;53.166;6.232;2022-09-17T06:07:17;9.10;99.90
53114;DHT22;39009;53.166;6.232;2022-09-17T06:09:42;9.10;99.90
53114;DHT22;39009;53.166;6.232;2022-09-17T06:12:08;9.20;99.90
53114;DHT22;39009;53.166;6.232;2022-09-17T06:14:34;9.20;99.90
53114;DHT22;39009;53.166;6.232;2022-09-17T06:16:59;9.40;99.90
53114;DHT22;39009;53.166;6.232;2022-09-17T06:19:25;9.40;99.90
53114;DHT22;39009;53.166;6.232;2022-09-17T06:21:51;9.50;99.90
53114;DHT22;39009;53.166;6.232;2022-09-17T06:24:17;9.40;99.90
53114;DHT22;39009;53.166;6.232;2022-09-17T06:26:42;9.40;99.90
53114;DHT22;39009;53.166;6.232;2022-09-17T06:29:08;9.50;99.90
53114;DHT22;39009;53.166;6.232;2022-09-17T06:31:33;9.40;99.90
53114;DHT22;39009;53.166;6.232;2022-09-17T06:33:59;9.90;99.90
53114;DHT22;39009;53.166;6.232;2022-09-17T06:36:25;10.30;99.90
53114;DHT22;39009;53.166;6.232;2022-09-17T06:38:50;10.70;99.90
53114;DHT22;39009;53.166;6.232;2022-09-17T06:41:19;11.00;99.90
53114;DHT22;39009;53.166;6.232;2022-09-17T06:43:45;10.90;99.90
53114;DHT22;39009;53.166;6.232;2022-09-17T06:46:10;10.90;99.90
53114;DHT22;39009;53.166;6.232;2022-09-17T06:48:36;10.80;99.90
53114;DHT22;39009;53.166;6.232;2022-09-17T06:51:03;10.70;99.90
53114;DHT22;39009;53.166;6.232;2022-09-17T06:53:29;10.60;99.90
53114;DHT22;39009;53.166;6.232;2022-09-17T06:55:58;10.50;99.90
53114;DHT22;39009;53.166;6.232;2022-09-17T06:58:24;10.40;99.90
53114;DHT22;39009;53.166;6.232;2022-09-17T07:00:51;10.50;99.90
53114;DHT22;39009;53.166;6.232;2022-09-17T07:03:16;10.60;99.90
53114;DHT22;39009;53.166;6.232;2022-09-17T07:05:43;10.70;99.90
53114;DHT22;39009;53.166;6.232;2022-09-17T07:08:09;10.60;99.90
53114;DHT22;39009;53.166;6.232;2022-09-17T07:10:35;10.50;99.90
53114;DHT22;39009;53.166;6.232;2022-09-17T07:13:01;10.60;99.90
53114;DHT22;39009;53.166;6.232;2022-09-17T07:15:26;11.20;99.90
53114;DHT22;39009;53.166;6.232;2022-09-17T07:17:52;12.10;99.90
53114;DHT22;39009;53.166;6.232;2022-09-17T07:20:18;13.20;99.90
53114;DHT22;39009;53.166;6.232;2022-09-17T07:22:43;14.10;99.90
53114;DHT22;39009;53.166;6.232;2022-09-17T07:25:09;14.90;99.90
53114;DHT22;39009;53.166;6.232;2022-09-17T07:27:34;15.70;99.90
53114;DHT22;39009;53.166;6.232;2022-09-17T07:30:00;16.10;99.90
53114;DHT22;39009;53.166;6.232;2022-09-17T07:32:27;16.10;99.90
53114;DHT22;39009;53.166;6.232;2022-09-17T07:34:53;15.50;99.90
53114;DHT22;39009;53.166;6.232;2022-09-17T07:37:18;14.90;99.90
53114;DHT22;39009;53.166;6.232;2022-09-17T07:39:45;14.20;99.90
53114;DHT22;39009;53.166;6.232;2022-09-17T07:42:11;13.60;99.90
53114;DHT22;39009;53.166;6.232;2022-09-17T07:44:36;13.10;99.90
53114;DHT22;39009;53.166;6.232;2022-09-17T07:47:02;12.80;99.90
53114;DHT22;39009;53.166;6.232;2022-09-17T07:49:28;12.60;99.90
53114;DHT22;39009;53.166;6.232;2022-09-17T07:51:54;12.60;99.90
53114;DHT22;39009;53.166;6.232;2022-09-17T07:54:19;12.60;99.90
53114;DHT22;39009;53.166;6.232;2022-09-17T07:56:45;12.40;99.90
53114;DHT22;39009;53.166;6.232;2022-09-17T07:59:10;12.30;99.90
53114;DHT22;39009;53.166;6.232;2022-09-17T08:01:36;12.20;99.90
53114;DHT22;39009;53.166;6.232;2022-09-17T08:04:02;12.30;99.90
53114;DHT22;39009;53.166;6.232;2022-09-17T08:06:28;12.20;99.90
53114;DHT22;39009;53.166;6.232;2022-09-17T08:08:54;12.10;99.90
53114;DHT22;39009;53.166;6.232;2022-09-17T08:11:22;11.90;99.90
53114;DHT22;39009;53.166;6.232;2022-09-17T08:13:48;11.70;99.90
53114;DHT22;39009;53.166;6.232;2022-09-17T08:16:14;11.50;99.90
53114;DHT22;39009;53.166;6.232;2022-09-17T08:18:40;11.50;99.90
53114;DHT22;39009;53.166;6.232;2022-09-17T08:21:07;11.50;99.90
53114;DHT22;39009;53.166;6.232;2022-09-17T08:23:34;11.80;99.90
53114;DHT22;39009;53.166;6.232;2022-09-17T08:26:00;12.20;99.90
53114;DHT22;39009;53.166;6.232;2022-09-17T08:28:27;12.40;99.90
53114;DHT22;39009;53.166;6.232;2022-09-17T08:30:53;12.60;99.90
53114;DHT22;39009;53.166;6.232;2022-09-17T08:33:19;12.80;99.90
53114;DHT22;39009;53.166;6.232;2022-09-17T08:35:54;13.20;99.90
53114;DHT22;39009;53.166;6.232;2022-09-17T08:38:26;13.80;99.90
53114;DHT22;39009;53.166;6.232;2022-09-17T08:41:27;14.50;99.90
53114;DHT22;39009;53.166;6.232;2022-09-17T08:46:10;16.00;99.90
53114;DHT22;39009;53.166;6.232;2022-09-17T08:48:38;16.70;99.90
53114;DHT22;39009;53.166;6.232;2022-09-17T08:51:07;17.10;99.90
53114;DHT22;39009;53.166;6.232;2022-09-17T08:56:09;17.00;99.90
53114;DHT22;39009;53.166;6.232;2022-09-17T08:58:40;17.10;99.90
53114;DHT22;39009;53.166;6.232;2022-09-17T09:01:20;17.20;99.90
53114;DHT22;39009;53.166;6.232;2022-09-17T09:06:33;17.30;99.90
53114;DHT22;39009;53.166;6.232;2022-09-17T09:09:01;17.10;99.90
53114;DHT22;39009;53.166;6.232;2022-09-17T09:11:29;16.40;99.90
53114;DHT22;39009;53.166;6.232;2022-09-17T09:16:40;15.60;99.90
53114;DHT22;39009;53.166;6.232;2022-09-17T09:19:25;15.70;99.90
53114;DHT22;39009;53.166;6.232;2022-09-17T09:22:00;15.70;99.90
53114;DHT22;39009;53.166;6.232;2022-09-17T09:24:30;15.50;99.90
53114;DHT22;39009;53.166;6.232;2022-09-17T09:34:43;15.20;99.90
53114;DHT22;39009;53.166;6.232;2022-09-17T09:39:40;15.10;99.90
53114;DHT22;39009;53.166;6.232;2022-09-17T09:44:34;14.80;99.90
53114;DHT22;39009;53.166;6.232;2022-09-17T09:57:43;15.00;99.90
53114;DHT22;39009;53.166;6.232;2022-09-17T10:00:24;14.50;99.90
53114;DHT22;39009;53.166;6.232;2022-09-17T10:03:05;14.00;99.90
53114;DHT22;39009;53.166;6.232;2022-09-17T10:05:34;13.70;99.90
53114;DHT22;39009;53.166;6.232;2022-09-17T10:08:09;13.40;99.90
53114;DHT22;39009;53.166;6.232;2022-09-17T10:10:35;13.50;99.90
53114;DHT22;39009;53.166;6.232;2022-09-17T10:13:05;13.60;99.90
53114;DHT22;39009;53.166;6.232;2022-09-17T10:15:31;13.90;99.90
53114;DHT22;39009;53.166;6.232;2022-09-17T10:18:10;14.10;99.90
53114;DHT22;39009;53.166;6.232;2022-09-17T10:20:47;14.20;99.90
53114;DHT22;39009;53.166;6.232;2022-09-17T10:23:13;14.40;99.90
53114;DHT22;39009;53.166;6.232;2022-09-17T10:25:40;14.50;99.90
53114;DHT22;39009;53.166;6.232;2022-09-17T10:28:21;14.60;99.90
53114;DHT22;39009;53.166;6.232;2022-09-17T10:30:58;14.60;99.90
53114;DHT22;39009;53.166;6.232;2022-09-17T10:33:28;14.40;99.90
53114;DHT22;39009;53.166;6.232;2022-09-17T10:41:07;14.40;99.90
53114;DHT22;39009;53.166;6.232;2022-09-17T10:43:33;14.20;99.90
53114;DHT22;39009;53.166;6.232;2022-09-17T10:45:58;13.80;99.90
53114;DHT22;39009;53.166;6.232;2022-09-17T10:48:25;13.50;99.90
53114;DHT22;39009;53.166;6.232;2022-09-17T10:50:54;13.20;99.90
53114;DHT22;39009;53.166;6.232;2022-09-17T10:53:20;13.00;99.90
53114;DHT22;39009;53.166;6.232;2022-09-17T11:01:33;12.70;99.90
53114;DHT22;39009;53.166;6.232;2022-09-17T11:14:32;13.40;99.90
53114;DHT22;39009;53.166;6.232;2022-09-17T11:30:16;15.10;99.90
53114;DHT22;39009;53.166;6.232;2022-09-17T11:32:56;15.10;99.90
53114;DHT22;39009;53.166;6.232;2022-09-17T11:38:37;16.50;99.90
53114;DHT22;39009;53.166;6.232;2022-09-17T11:41:08;17.60;99.90
53114;DHT22;39009;53.166;6.232;2022-09-17T11:43:36;18.30;99.90
53114;DHT22;39009;53.166;6.232;2022-09-17T11:46:16;18.90;99.90
53114;DHT22;39009;53.166;6.232;2022-09-17T11:48:49;18.90;99.90
53114;DHT22;39009;53.166;6.232;2022-09-17T11:51:25;18.10;99.90
53114;DHT22;39009;53.166;6.232;2022-09-17T11:56:32;16.60;99.90
53114;DHT22;39009;53.166;6.232;2022-09-17T12:01:44;17.40;99.90
53114;DHT22;39009;53.166;6.232;2022-09-17T12:04:18;18.20;99.90
53114;DHT22;39009;53.166;6.232;2022-09-17T12:06:51;18.50;99.90
53114;DHT22;39009;53.166;6.232;2022-09-17T12:09:19;18.60;99.90
53114;DHT22;39009;53.166;6.232;2022-09-17T12:11:50;18.80;99.90
53114;DHT22;39009;53.166;6.232;2022-09-17T12:15:01;18.90;99.90
53114;DHT22;39009;53.166;6.232;2022-09-17T12:17:07;18.80;99.90
53114;DHT22;39009;53.166;6.232;2022-09-17T12:19:40;17.50;99.90
53114;DHT22;39009;53.166;6.232;2022-09-17T12:22:08;16.70;99.90
53114;DHT22;39009;53.166;6.232;2022-09-17T12:24:35;17.00;99.90
53114;DHT22;39009;53.166;6.232;2022-09-17T12:29:34;18.00;99.90
53114;DHT22;39009;53.166;6.232;2022-09-17T12:32:08;18.50;99.90
53114;DHT22;39009;53.166;6.232;2022-09-17T12:50:25;20.10;99.90
53114;DHT22;39009;53.166;6.232;2022-09-17T13:00:52;20.70;99.30
53114;DHT22;39009;53.166;6.232;2022-09-17T13:03:31;20.50;98.20
53114;DHT22;39009;53.166;6.232;2022-09-17T13:06:08;20.10;96.40
53114;DHT22;39009;53.166;6.232;2022-09-17T13:11:34;20.10;96.00
53114;DHT22;39009;53.166;6.232;2022-09-17T13:14:11;20.00;94.00
53114;DHT22;39009;53.166;6.232;2022-09-17T13:19:37;20.20;92.40
53114;DHT22;39009;53.166;6.232;2022-09-17T13:22:05;20.40;93.90
53114;DHT22;39009;53.166;6.232;2022-09-17T13:24:31;20.30;91.80
53114;DHT22;39009;53.166;6.232;2022-09-17T13:26:58;19.40;93.20
53114;DHT22;39009;53.166;6.232;2022-09-17T13:32:54;18.50;95.00
53114;DHT22;39009;53.166;6.232;2022-09-17T13:34:54;18.30;95.60
53114;DHT22;39009;53.166;6.232;2022-09-17T13:37:20;17.70;94.00
53114;DHT22;39009;53.166;6.232;2022-09-17T13:39:47;17.00;95.30
53114;DHT22;39009;53.166;6.232;2022-09-17T13:42:14;16.60;96.40
53114;DHT22;39009;53.166;6.232;2022-09-17T13:44:43;16.40;98.60
53114;DHT22;39009;53.166;6.232;2022-09-17T13:47:29;16.50;99.90
53114;DHT22;39009;53.166;6.232;2022-09-17T13:49:57;17.00;99.90
53114;DHT22;39009;53.166;6.232;2022-09-17T13:52:37;17.00;99.90
53114;DHT22;39009;53.166;6.232;2022-09-17T13:55:04;16.70;99.90
53114;DHT22;39009;53.166;6.232;2022-09-17T13:57:30;16.30;99.90
53114;DHT22;39009;53.166;6.232;2022-09-17T13:59:58;16.00;99.90
53114;DHT22;39009;53.166;6.232;2022-09-17T14:02:25;15.70;99.90
53114;DHT22;39009;53.166;6.232;2022-09-17T14:04:55;15.30;99.90
53114;DHT22;39009;53.166;6.232;2022-09-17T14:07:46;14.90;99.90
53114;DHT22;39009;53.166;6.232;2022-09-17T14:17:50;15.00;99.90
53114;DHT22;39009;53.166;6.232;2022-09-17T14:20:18;14.90;99.90
53114;DHT22;39009;53.166;6.232;2022-09-17T14:22:44;14.50;99.90
53114;DHT22;39009;53.166;6.232;2022-09-17T14:25:18;13.90;99.90
53114;DHT22;39009;53.166;6.232;2022-09-17T14:27:51;13.40;99.90
53114;DHT22;39009;53.166;6.232;2022-09-17T14:30:22;13.00;99.90
53114;DHT22;39009;53.166;6.232;2022-09-17T14:33:01;12.80;99.90
53114;DHT22;39009;53.166;6.232;2022-09-17T14:35:30;12.70;99.90
53114;DHT22;39009;53.166;6.232;2022-09-17T14:37:59;12.60;99.90
53114;DHT22;39009;53.166;6.232;2022-09-17T14:40:26;12.60;99.90
53114;DHT22;39009;53.166;6.232;2022-09-17T14:42:56;12.60;99.90
53114;DHT22;39009;53.166;6.232;2022-09-17T14:45:26;12.60;99.90
53114;DHT22;39009;53.166;6.232;2022-09-17T14:50:38;12.50;99.90
53114;DHT22;39009;53.166;6.232;2022-09-17T14:53:06;12.40;99.90
53114;DHT22;39009;53.166;6.232;2022-09-17T14:55:32;12.30;99.90
53114;DHT22;39009;53.166;6.232;2022-09-17T14:57:58;12.20;99.90
53114;DHT22;39009;53.166;6.232;2022-09-17T15:00:32;12.30;99.90
53114;DHT22;39009;53.166;6.232;2022-09-17T15:02:58;12.20;99.90
53114;DHT22;39009;53.166;6.232;2022-09-17T15:05:28;12.30;99.90
53114;DHT22;39009;53.166;6.232;2022-09-17T15:08:06;12.50;99.90
53114;DHT22;39009;53.166;6.232;2022-09-17T15:10:33;12.70;99.90
53114;DHT22;39009;53.166;6.232;2022-09-17T15:13:00;12.60;99.90
53114;DHT22;39009;53.166;6.232;2022-09-17T15:15:26;12.60;99.90
53114;DHT22;39009;53.166;6.232;2022-09-17T15:17:51;12.60;99.90
53114;DHT22;39009;53.166;6.232;2022-09-17T15:20:26;12.70;99.90
53114;DHT22;39009;53.166;6.232;2022-09-17T15:22:58;12.60;99.90
53114;DHT22;39009;53.166;6.232;2022-09-17T15:25:28;12.60;99.90
53114;DHT22;39009;53.166;6.232;2022-09-17T15:27:54;12.60;99.90
53114;DHT22;39009;53.166;6.232;2022-09-17T15:30:22;12.70;99.90
53114;DHT22;39009;53.166;6.232;2022-09-17T15:32:49;12.70;99.90
53114;DHT22;39009;53.166;6.232;2022-09-17T15:37:45;12.70;99.90
53114;DHT22;39009;53.166;6.232;2022-09-17T15:40:12;12.80;99.90
53114;DHT22;39009;53.166;6.232;2022-09-17T15:42:38;12.80;99.90
53114;DHT22;39009;53.166;6.232;2022-09-17T15:45:20;12.80;99.90
53114;DHT22;39009;53.166;6.232;2022-09-17T15:48:04;12.90;99.90
53114;DHT22;39009;53.166;6.232;2022-09-17T15:50:31;12.90;99.90
53114;DHT22;39009;53.166;6.232;2022-09-17T15:55:35;13.00;99.90
53114;DHT22;39009;53.166;6.232;2022-09-17T15:58:02;13.00;99.90
53114;DHT22;39009;53.166;6.232;2022-09-17T16:00:28;13.00;99.90
53114;DHT22;39009;53.166;6.232;2022-09-17T16:02:56;12.90;99.90
53114;DHT22;39009;53.166;6.232;2022-09-17T16:07:50;12.80;99.90
53114;DHT22;39009;53.166;6.232;2022-09-17T16:10:16;12.70;99.90
53114;DHT22;39009;53.166;6.232;2022-09-17T16:12:41;12.70;99.90
53114;DHT22;39009;53.166;6.232;2022-09-17T16:15:08;12.70;99.90
53114;DHT22;39009;53.166;6.232;2022-09-17T16:17:46;12.70;99.90
53114;DHT22;39009;53.166;6.232;2022-09-17T16:22:39;12.60;99.90
53114;DHT22;39009;53.166;6.232;2022-09-17T16:25:05;12.50;99.90
53114;DHT22;39009;53.166;6.232;2022-09-17T16:27:32;12.40;99.90
53114;DHT22;39009;53.166;6.232;2022-09-17T16:30:00;12.30;99.90
53114;DHT22;39009;53.166;6.232;2022-09-17T16:32:26;12.30;99.90
53114;DHT22;39009;53.166;6.232;2022-09-17T16:34:52;12.30;99.90
53114;DHT22;39009;53.166;6.232;2022-09-17T16:37:18;12.20;99.90
53114;DHT22;39009;53.166;6.232;2022-09-17T16:39:43;12.20;99.90
53114;DHT22;39009;53.166;6.232;2022-09-17T16:42:09;12.20;99.90
53114;DHT22;39009;53.166;6.232;2022-09-17T16:44:34;12.10;99.90
53114;DHT22;39009;53.166;6.232;2022-09-17T16:47:00;12.10;99.90
53114;DHT22;39009;53.166;6.232;2022-09-17T16:49:25;12.00;99.90
53114;DHT22;39009;53.166;6.232;2022-09-17T16:51:51;11.90;99.90
53114;DHT22;39009;53.166;6.232;2022-09-17T16:54:17;11.90;99.90
53114;DHT22;39009;53.166;6.232;2022-09-17T16:56:42;11.80;99.90
53114;DHT22;39009;53.166;6.232;2022-09-17T16:59:08;11.80;99.90
53114;DHT22;39009;53.166;6.232;2022-09-17T17:01:33;11.70;99.90
53114;DHT22;39009;53.166;6.232;2022-09-17T17:03:59;11.80;99.90
53114;DHT22;39009;53.166;6.232;2022-09-17T17:06:25;11.60;99.90
53114;DHT22;39009;53.166;6.232;2022-09-17T17:08:51;11.60;99.90
53114;DHT22;39009;53.166;6.232;2022-09-17T17:11:17;11.60;99.90
53114;DHT22;39009;53.166;6.232;2022-09-17T17:13:42;11.60;99.90
53114;DHT22;39009;53.166;6.232;2022-09-17T17:16:09;11.60;99.90
53114;DHT22;39009;53.166;6.232;2022-09-17T17:18:34;11.50;99.90
53114;DHT22;39009;53.166;6.232;2022-09-17T17:21:07;11.60;99.90
53114;DHT22;39009;53.166;6.232;2022-09-17T17:23:34;11.60;99.90
53114;DHT22;39009;53.166;6.232;2022-09-17T17:25:59;11.60;99.90
53114;DHT22;39009;53.166;6.232;2022-09-17T17:28:25;11.60;99.90
53114;DHT22;39009;53.166;6.232;2022-09-17T17:30:51;11.50;99.90
53114;DHT22;39009;53.166;6.232;2022-09-17T17:33:16;11.50;99.90
53114;DHT22;39009;53.166;6.232;2022-09-17T17:35:42;11.50;99.90
53114;DHT22;39009;53.166;6.232;2022-09-17T17:38:09;11.40;99.90
53114;DHT22;39009;53.166;6.232;2022-09-17T17:40:35;11.60;99.90
53114;DHT22;39009;53.166;6.232;2022-09-17T17:43:01;11.40;99.90
53114;DHT22;39009;53.166;6.232;2022-09-17T17:45:26;11.40;99.90
53114;DHT22;39009;53.166;6.232;2022-09-17T17:47:52;11.40;99.90
53114;DHT22;39009;53.166;6.232;2022-09-17T17:50:18;11.40;99.90
53114;DHT22;39009;53.166;6.232;2022-09-17T17:52:43;11.30;99.90
53114;DHT22;39009;53.166;6.232;2022-09-17T17:55:12;11.30;99.90
53114;DHT22;39009;53.166;6.232;2022-09-17T17:57:38;11.20;99.90
53114;DHT22;39009;53.166;6.232;2022-09-17T18:00:03;11.20;99.90
53114;DHT22;39009;53.166;6.232;2022-09-17T18:02:29;11.20;99.90
53114;DHT22;39009;53.166;6.232;2022-09-17T18:04:55;11.20;99.90
53114;DHT22;39009;53.166;6.232;2022-09-17T18:07:20;11.20;99.90
53114;DHT22;39009;53.166;6.232;2022-09-17T18:09:46;11.10;99.90
53114;DHT22;39009;53.166;6.232;2022-09-17T18:12:12;11.10;99.90
53114;DHT22;39009;53.166;6.232;2022-09-17T18:14:37;11.10;99.90
53114;DHT22;39009;53.166;6.232;2022-09-17T18:17:03;11.10;99.90
53114;DHT22;39009;53.166;6.232;2022-09-17T18:19:29;11.10;99.90
53114;DHT22;39009;53.166;6.232;2022-09-17T18:21:54;11.10;99.90
53114;DHT22;39009;53.166;6.232;2022-09-17T18:24:20;11.10;99.90
53114;DHT22;39009;53.166;6.232;2022-09-17T18:26:45;11.10;99.90